首页
METAR-TAF:

METAR-TAF

机场 :

梅赫拉巴德國際機場

德黑兰, 伊朗

纬度: 35-41N, 经度: 051-21E, 海拔: 1204米

当前天气观测

该预报发布于16分钟前的11:00 UTC
风速18节,风向西转西北
温度 19°C
湿度 16%
气压 1010 hPa
能见度10公里或以上
少量云层高于3500英尺, 塔状积云.
散云层高于10000英尺

METAR: OIII 201100Z 30018KT 9999 FEW035TCU SCT100 19/M07 Q1009 A2982 NOSIG

时间: 15:46 (11:16 UTC)

预报

该预报发布于5小时和46分钟前的05:30 UTC
预报有效从20日的 06点(UTC)到 21日的 12点(UTC)
风速10节,风向西转西北
能見度: 7000
少量云层高于3500英尺, 积雨云.
散云层高于4000英尺
多云层高于10000英尺
短暂存在
从 20日的 06点(UTC)到 20日的 12点(UTC)
风速20节,风向西转西北
能見度: 5000
散云层高于3000英尺, 积雨云.
散云层高于3500英尺
阴天层高于9000英尺
雷暴, 雨
成为
从 20日的 12点(UTC)到 20日的 14点(UTC)
少量云层高于3500英尺
短暂存在
从 20日的 12点(UTC)到 20日的 18点(UTC)
风速24节,风向西转西北

TAF: OIII 200530Z 2006/2112 30010KT 7000 FEW035CB SCT040 BKN100 TEMPO 2006/2012 30020KT 5000 TSRA SCT030CB SCT035 OVC090 BECMG 2012/2014 FEW035 TEMPO 2012/2018 30024KT

超过4000个机场的气象观测和天气预报(METAR&TAF报告)。

可查询的气象台以黄色和红色小点在地图上表示。

将鼠标移到小点上方,可查看气象台名称。

然后点击查看天气观测和预报。

如需切换地图:点击带黑十字的绿色按钮放大地图;点击带横线的绿色按钮缩小地图;或者点击绿色箭头查看邻近地区的地图。


METAR-TAF: